Time;durP1;ratioP1;P1;durP2;ratioP2;P2;SDS_P1;SDS_P2;PMS_P1;PMS_P2;Temp;Humidity;BMP_temperature;BMP_pressure;BME280_temperature;BME280_humidity;BME280_pressure;Samples;Min_cycle;Max_cycle;Signal;HPM_P1;HPM_P2
2023/01/23 00:01:21;;;;;;;;;;;;;;;-144.99;90.75;52590.78;5067818;28;19959;-74
2023/01/23 00:03:49;;;;;;;;;;;;;;;-144.99;91.19;52541.84;5067502;28;19929;-74
2023/01/23 00:06:16;;;;;;;;;;;;;;;-144.99;90.72;52521.47;5067992;28;19944;-73
2023/01/23 00:08:44;;;;;;;;;;;;;;;-144.99;90.11;52507.19;5066527;28;19924;-73
2023/01/23 00:11:12;;;;;;;;;;;;;;;-144.99;90.07;52554.09;5068242;28;19975;-73
2023/01/23 00:13:38;;;;;;;;;;;;;;;-144.99;90.03;52511.28;5080637;28;20119;-74
2023/01/23 00:16:05;;;;;;;;;;;;;;;-144.99;89.85;52541.84;5091126;28;19998;-73
2023/01/23 00:18:31;;;;;;;;;;;;;;;-144.99;89.62;52533.69;5066486;28;20354;-73
2023/01/23 00:21:03;;;;;;;;;;;;;;;-144.99;89.41;52552.03;5067842;28;19993;-72
2023/01/23 00:23:29;;;;;;;;;;;;;;;-144.99;89.09;52537.78;5067619;28;20352;-73
2023/01/23 00:25:56;;;;;;;;;;;;;;;-144.99;88.77;52588.75;5067738;28;19924;-73
2023/01/23 00:28:22;;;;;;;;;;;;;;;-144.99;88.84;52550.00;5065229;28;19929;-73
2023/01/23 00:30:49;;;;;;;;;;;;;;;-144.99;88.70;52529.63;5067009;28;20003;-74
2023/01/23 00:33:15;;;;;;;;;;;;;;;-144.99;88.56;52501.09;5065306;28;20651;-73
2023/01/23 00:35:42;;;;;;;;;;;;;;;-144.99;88.44;52529.63;5068098;28;19971;-74
2023/01/23 00:38:09;;;;;;;;;;;;;;;-144.99;88.38;52513.31;5067586;28;19994;-75
2023/01/23 00:40:36;;;;;;;;;;;;;;;-144.99;88.35;52513.31;5065793;28;20379;-74
2023/01/23 00:43:02;;;;;;;;;;;;;;;-144.99;88.51;52537.78;5069828;28;19924;-74
2023/01/23 00:45:29;;;;;;;;;;;;;;;-144.99;88.29;52554.09;5071560;28;19960;-74
2023/01/23 00:47:55;;;;;;;;;;;;;;;-144.99;89.71;52525.56;5072684;28;19963;-73
2023/01/23 00:50:22;;;;;;;;;;;;;;;-144.99;90.55;52515.34;5093077;28;20019;-74
2023/01/23 00:52:48;;;;;;;;;;;;;;;-144.99;90.72;52537.78;5103386;28;19923;-75
2023/01/23 00:55:16;;;;;;;;;;;;;;;-144.99;91.12;52533.69;5074853;28;19960;-74
2023/01/23 00:57:42;;;;;;;;;;;;;;;-144.99;91.28;52550.00;5069361;28;19986;-74
2023/01/23 01:00:10;;;;;;;;;;;;;;;-144.99;91.62;52537.78;5074695;28;19963;-74
2023/01/23 01:02:36;;;;;;;;;;;;;;;-144.99;91.86;52529.63;5072878;28;19967;-74
2023/01/23 01:05:03;;;;;;;;;;;;;;;-144.99;91.80;52521.47;5072346;28;19928;-74
2023/01/23 01:07:29;;;;;;;;;;;;;;;-144.99;91.84;52533.69;5075653;28;19956;-74
2023/01/23 01:09:56;;;;;;;;;;;;;;;-144.99;91.72;52513.31;5072100;28;19928;-74
2023/01/23 01:12:23;;;;;;;;;;;;;;;-144.99;91.98;52529.63;5072109;28;20473;-74
2023/01/23 01:14:50;;;;;;;;;;;;;;;-144.99;91.79;52564.28;5072229;28;19998;-75
2023/01/23 01:17:16;;;;;;;;;;;;;;;-144.99;92.37;52529.63;5070469;28;19924;-75
2023/01/23 01:19:43;;;;;;;;;;;;;;;-144.99;92.01;52556.13;5072244;28;19994;-72
2023/01/23 01:22:09;;;;;;;;;;;;;;;-144.99;92.04;52521.47;5072557;28;19963;-74
2023/01/23 01:24:36;;;;;;;;;;;;;;;-144.99;91.88;52517.41;5073000;28;19981;-72
2023/01/23 01:27:03;;;;;;;;;;;;;;;-144.99;91.82;52529.63;5086569;28;19920;-74
2023/01/23 01:29:30;;;;;;;;;;;;;;;-144.99;91.79;52501.09;5099492;28;19925;-74
2023/01/23 01:31:57;;;;;;;;;;;;;;;-144.99;91.88;52554.09;5082035;28;19985;-74
2023/01/23 01:34:23;;;;;;;;;;;;;;;-144.99;91.98;52527.59;5071904;28;20808;-74
2023/01/23 01:36:50;;;;;;;;;;;;;;;-144.99;92.24;52521.47;5071603;28;19966;-74
2023/01/23 01:39:17;;;;;;;;;;;;;;;-144.99;92.06;52539.81;5069161;28;20034;-74
2023/01/23 01:41:43;;;;;;;;;;;;;;;-144.99;92.75;52541.84;4721167;28;10000079;-74
2023/01/23 01:44:12;;;;;;;;;;;;;;;-144.99;92.64;52509.25;5065614;28;19971;-75
2023/01/23 01:46:40;;;;;;;;;;;;;;;-144.99;93.02;52541.84;5070422;28;20351;-74
2023/01/23 01:49:09;;;;;;;;;;;;;;;-144.99;92.88;52519.44;5069151;28;19963;-78
2023/01/23 01:51:38;;;;;;;;;;;;;;;-144.99;93.18;52517.41;5097865;22;19924;-75
2023/01/23 01:54:07;;;;;;;;;;;;;;;-144.99;93.41;52531.66;5064493;28;20418;-72
2023/01/23 01:56:37;;;;;;;;;;;;;;;-144.99;93.23;52523.50;5066690;28;20031;-74
2023/01/23 01:59:04;;;;;;;;;;;;;;;-144.99;93.21;52525.56;5070443;28;19963;-76
2023/01/23 02:01:31;;;;;;;;;;;;;;;-144.99;93.45;52574.47;5062918;28;20392;-75
2023/01/23 02:03:59;;;;;;;;;;;;;;;-144.99;93.42;52541.84;5051447;28;19925;-74
2023/01/23 02:06:26;;;;;;;;;;;;;;;-144.99;93.36;52533.69;5041344;28;19968;-76
2023/01/23 02:08:57;;;;;;;;;;;;;;;-144.99;93.73;52550.00;5064150;28;19936;-76
2023/01/23 02:11:23;;;;;;;;;;;;;;;-144.99;93.68;52556.13;5057283;28;19978;-72
2023/01/23 02:13:52;;;;;;;;;;;;;;;-144.99;93.87;52554.09;5052493;28;19936;-74
2023/01/23 02:16:20;;;;;;;;;;;;;;;-144.99;94.07;52492.94;5040092;28;19944;-74
2023/01/23 02:18:49;;;;;;;;;;;;;;;-144.99;94.29;52541.84;5042535;28;20020;-73
2023/01/23 02:21:19;;;;;;;;;;;;;;;-144.99;94.44;52501.09;5060249;28;19979;-76
2023/01/23 02:23:55;;;;;;;;;;;;;;;-144.99;94.38;52529.63;5057752;28;20068;-74
2023/01/23 02:26:25;;;;;;;;;;;;;;;-144.99;94.21;52525.56;5049888;28;19932;-75
2023/01/23 02:28:52;;;;;;;;;;;;;;;-144.99;94.45;52547.97;5050791;28;20011;-75
2023/01/23 02:31:19;;;;;;;;;;;;;;;-144.99;94.24;52509.25;5052428;28;19932;-78
2023/01/23 02:33:47;;;;;;;;;;;;;;;-144.99;94.10;52541.84;5045676;28;19987;-75
2023/01/23 02:36:14;;;;;;;;;;;;;;;-144.99;94.05;52507.19;5058326;28;19955;-71
2023/01/23 02:38:48;;;;;;;;;;;;;;;-144.99;94.22;52480.72;5053643;28;19972;-73
2023/01/23 02:41:15;;;;;;;;;;;;;;;-144.99;94.22;52521.47;5055880;28;20430;-73
2023/01/23 02:43:44;;;;;;;;;;;;;;;-144.99;94.20;52541.84;5050486;28;19978;-73
2023/01/23 02:46:11;;;;;;;;;;;;;;;-144.99;94.62;52541.84;5057399;28;20654;-73
2023/01/23 02:48:39;;;;;;;;;;;;;;;-144.99;94.62;52545.94;5045203;28;19924;-73
2023/01/23 02:51:06;;;;;;;;;;;;;;;-144.99;94.62;52517.41;5055602;28;19945;-75
2023/01/23 02:53:32;;;;;;;;;;;;;;;-144.99;95.04;52513.31;5045028;28;20348;-76
2023/01/23 02:55:59;;;;;;;;;;;;;;;-144.99;95.48;52505.16;5049947;28;19970;-75
2023/01/23 03:01:11;;;;;;;;;;;;;;;-144.99;94.96;52529.63;5041544;28;19931;-74
2023/01/23 03:03:41;;;;;;;;;;;;;;;-144.99;95.02;52562.25;5039971;28;20063;-74
2023/01/23 03:06:07;;;;;;;;;;;;;;;-144.99;95.56;52550.00;5058749;28;20015;-72
2023/01/23 03:08:35;;;;;;;;;;;;;;;-144.99;95.36;52574.47;5060257;28;20028;-77
2023/01/23 03:11:03;;;;;;;;;;;;;;;-144.99;95.18;52525.56;5050220;28;19925;-75
2023/01/23 03:13:30;;;;;;;;;;;;;;;-144.99;95.30;52521.47;5037725;28;20020;-76
2023/01/23 03:15:57;;;;;;;;;;;;;;;-144.99;95.49;52541.84;5068927;28;19973;-78
2023/01/23 03:18:26;;;;;;;;;;;;;;;-144.99;95.36;52554.09;5064012;28;19925;-75
2023/01/23 03:20:53;;;;;;;;;;;;;;;-144.99;95.68;52509.25;5058557;28;19924;-77
2023/01/23 03:23:19;;;;;;;;;;;;;;;-144.99;95.43;52541.84;5051919;28;19994;-78
2023/01/23 03:25:47;;;;;;;;;;;;;;;-144.99;95.57;52541.84;5050011;28;20011;-77
2023/01/23 03:30:54;;;;;;;;;;;;;;;-144.99;95.83;52552.03;5054325;28;19929;-77
2023/01/23 03:33:21;;;;;;;;;;;;;;;-144.99;95.88;52533.69;5052488;28;20035;-76
2023/01/23 03:35:49;;;;;;;;;;;;;;;-144.99;96.02;52537.78;5042489;28;20426;-75
2023/01/23 03:38:18;;;;;;;;;;;;;;;-144.99;95.51;52578.53;5058310;28;19975;-75
2023/01/23 03:43:30;;;;;;;;;;;;;;;-144.99;95.82;52505.16;5042889;28;20070;-75
2023/01/23 03:45:57;;;;;;;;;;;;;;;-144.99;96.00;52531.66;5052034;28;20000;-77
2023/01/23 03:48:23;;;;;;;;;;;;;;;-144.99;96.12;52523.50;5061929;28;19977;-75
2023/01/23 03:50:51;;;;;;;;;;;;;;;-144.99;95.95;52505.16;5060994;28;20011;-77
2023/01/23 03:53:18;;;;;;;;;;;;;;;-144.99;96.23;52527.59;5063622;28;19936;-74
2023/01/23 03:55:44;;;;;;;;;;;;;;;-144.99;96.35;52554.09;5055568;28;20029;-76
2023/01/23 03:58:11;;;;;;;;;;;;;;;-144.99;96.21;52547.97;5058104;28;20023;-76
2023/01/23 04:00:37;;;;;;;;;;;;;;;-144.99;96.14;52529.63;5057327;28;20448;-76
2023/01/23 04:03:04;;;;;;;;;;;;;;;-144.99;96.23;52545.94;5047491;28;19982;-74
2023/01/23 04:05:30;;;;;;;;;;;;;;;-144.99;95.97;52492.94;5055267;28;19991;-73
2023/01/23 04:07:58;;;;;;;;;;;;;;;-144.99;95.43;52537.78;5055132;28;19967;-73
2023/01/23 04:10:25;;;;;;;;;;;;;;;-144.99;95.86;52529.63;5053646;28;20073;-74
2023/01/23 04:12:51;;;;;;;;;;;;;;;-144.99;96.35;52509.25;5050937;28;19964;-72
2023/01/23 04:15:18;;;;;;;;;;;;;;;-144.99;96.92;52572.44;5045882;28;19979;-73
2023/01/23 04:17:44;;;;;;;;;;;;;;;-144.99;94.94;52521.47;5043823;28;19931;-73
2023/01/23 04:20:11;;;;;;;;;;;;;;;-144.99;94.33;52515.34;5046348;28;20411;-74
2023/01/23 04:22:37;;;;;;;;;;;;;;;-144.99;95.72;52541.84;5043168;28;19936;-74
2023/01/23 04:25:06;;;;;;;;;;;;;;;-144.99;96.30;52525.56;5044709;28;19967;-77
2023/01/23 04:27:32;;;;;;;;;;;;;;;-144.99;96.29;52509.25;5064968;28;20480;-75
2023/01/23 04:29:59;;;;;;;;;;;;;;;-144.99;96.29;52541.84;5058334;28;19971;-75
2023/01/23 04:32:25;;;;;;;;;;;;;;;-144.99;96.18;52521.47;5049120;28;19947;-78
2023/01/23 04:34:52;;;;;;;;;;;;;;;-144.99;96.45;52521.47;5047887;28;20341;-75
2023/01/23 04:37:18;;;;;;;;;;;;;;;-144.99;96.27;52533.69;5052809;28;19925;-75
2023/01/23 04:39:44;;;;;;;;;;;;;;;-144.99;96.38;52482.75;5045354;28;19929;-77
2023/01/23 04:42:12;;;;;;;;;;;;;;;-144.99;96.10;52566.31;5040548;28;20384;-76
2023/01/23 04:44:39;;;;;;;;;;;;;;;-144.99;94.85;52554.09;5046145;28;20014;-75
2023/01/23 04:47:05;;;;;;;;;;;;;;;-144.99;94.70;52527.59;5049692;28;19933;-74
2023/01/23 04:49:32;;;;;;;;;;;;;;;-144.99;95.74;52517.41;5056141;28;19924;-75
2023/01/23 04:51:58;;;;;;;;;;;;;;;-144.99;95.99;52511.28;5039433;28;19925;-73
2023/01/23 04:54:25;;;;;;;;;;;;;;;-144.99;95.95;52541.84;5051534;28;19928;-75
2023/01/23 04:56:51;;;;;;;;;;;;;;;-144.99;95.86;52521.47;5043266;28;19925;-74
2023/01/23 04:59:20;;;;;;;;;;;;;;;-144.99;95.74;52499.06;5052958;28;20404;-73
2023/01/23 05:01:47;;;;;;;;;;;;;;;-144.99;95.69;52545.94;5047411;28;20012;-73
2023/01/23 05:04:13;;;;;;;;;;;;;;;-144.99;95.72;52537.78;5044284;28;19936;-75
2023/01/23 05:06:40;;;;;;;;;;;;;;;-144.99;96.46;52513.31;5048770;28;20384;-76
2023/01/23 05:09:06;;;;;;;;;;;;;;;-144.99;96.49;52550.00;5042304;28;19995;-75
2023/01/23 05:11:33;;;;;;;;;;;;;;;-144.99;96.60;52515.34;5055071;28;19935;-76
2023/01/23 05:14:00;;;;;;;;;;;;;;;-144.99;96.64;52537.78;5051746;28;19925;-77
2023/01/23 05:16:28;;;;;;;;;;;;;;;-144.99;96.56;52554.09;5083316;28;19924;-75
2023/01/23 05:18:54;;;;;;;;;;;;;;;-144.99;96.51;52537.78;5044539;28;19925;-77
2023/01/23 05:21:21;;;;;;;;;;;;;;;-144.99;96.50;52529.63;5054565;28;20384;-75
2023/01/23 05:23:47;;;;;;;;;;;;;;;-144.99;96.58;52521.47;5042408;28;20038;-75
2023/01/23 05:26:13;;;;;;;;;;;;;;;-144.99;96.61;52513.31;5040700;28;19971;-77
2023/01/23 05:28:40;;;;;;;;;;;;;;;-144.99;96.59;52545.94;5050194;28;19968;-77
2023/01/23 05:31:06;;;;;;;;;;;;;;;-144.99;96.92;52533.69;5044319;28;20431;-76
2023/01/23 05:33:34;;;;;;;;;;;;;;;-144.99;96.45;52517.41;5062858;28;19964;-77
2023/01/23 05:36:01;;;;;;;;;;;;;;;-144.99;94.69;52558.16;5063125;28;19985;-78
2023/01/23 05:38:28;;;;;;;;;;;;;;;-144.99;96.85;52497.00;5056914;28;19924;-74
2023/01/23 05:40:54;;;;;;;;;;;;;;;-144.99;97.08;52523.50;5058817;28;20403;-77
2023/01/23 05:43:21;;;;;;;;;;;;;;;-144.99;98.22;52529.63;5056974;28;20349;-74
2023/01/23 05:45:47;;;;;;;;;;;;;;;-144.99;96.89;52545.94;5054123;28;19937;-75
2023/01/23 05:48:14;;;;;;;;;;;;;;;-144.99;95.83;52541.84;5056013;28;19925;-75
2023/01/23 05:50:41;;;;;;;;;;;;;;;-144.99;96.10;52533.69;5067168;28;19975;-74
2023/01/23 05:53:08;;;;;;;;;;;;;;;-144.99;95.88;52529.63;5048762;28;19960;-73
2023/01/23 05:55:34;;;;;;;;;;;;;;;-144.99;95.79;52507.19;5038254;28;20344;-79
2023/01/23 05:58:01;;;;;;;;;;;;;;;-144.99;96.13;52505.16;5044187;28;19956;-78
2023/01/23 06:00:27;;;;;;;;;;;;;;;-144.99;95.94;52527.59;5046982;28;19925;-77
2023/01/23 06:02:54;;;;;;;;;;;;;;;-144.99;95.70;52529.63;5045755;28;19990;-79
2023/01/23 06:05:22;;;;;;;;;;;;;;;-144.99;95.54;52513.31;5056265;28;20031;-77
2023/01/23 06:07:50;;;;;;;;;;;;;;;-144.99;97.57;52541.84;5055568;28;19947;-78
2023/01/23 06:10:16;;;;;;;;;;;;;;;-144.99;98.65;52541.84;4686293;28;9999749;-75
2023/01/23 06:12:43;;;;;;;;;;;;;;;-144.99;99.02;52505.16;5046385;28;19929;-76
2023/01/23 06:15:09;;;;;;;;;;;;;;;-144.99;98.98;52519.44;5058416;28;19952;-79
2023/01/23 06:17:36;;;;;;;;;;;;;;;-144.99;99.00;52503.13;5056439;28;19925;-76
2023/01/23 06:20:03;;;;;;;;;;;;;;;-144.99;99.08;52554.09;5050839;28;19940;-75
2023/01/23 06:22:30;;;;;;;;;;;;;;;-144.99;98.84;52515.34;5054146;28;19924;-76
2023/01/23 06:24:58;;;;;;;;;;;;;;;-144.99;98.86;52541.84;5043741;28;19963;-76
2023/01/23 06:27:24;;;;;;;;;;;;;;;-144.99;98.73;52523.50;5029000;28;19925;-77
2023/01/23 06:29:51;;;;;;;;;;;;;;;-144.99;98.52;52505.16;5061582;28;19928;-77
2023/01/23 06:32:17;;;;;;;;;;;;;;;-144.99;98.59;52503.13;5059614;28;20599;-76
2023/01/23 06:34:44;;;;;;;;;;;;;;;-144.99;98.57;52545.94;5036829;28;19990;-79
2023/01/23 06:37:10;;;;;;;;;;;;;;;-144.99;98.35;52509.25;5029287;28;19960;-77
2023/01/23 06:39:37;;;;;;;;;;;;;;;-144.99;96.54;52533.69;5048176;28;20442;-76
2023/01/23 06:42:08;;;;;;;;;;;;;;;-144.99;97.81;52598.94;5029008;28;20640;-79
2023/01/23 06:44:35;;;;;;;;;;;;;;;-144.99;97.86;52521.47;5028960;28;20019;-76
2023/01/23 06:47:02;;;;;;;;;;;;;;;-144.99;98.00;52507.19;5046138;28;19985;-74
2023/01/23 06:49:28;;;;;;;;;;;;;;;-144.99;97.96;52537.78;5046776;28;19967;-77
2023/01/23 06:51:55;;;;;;;;;;;;;;;-144.99;98.24;52550.00;5057964;28;19925;-80
2023/01/23 06:54:21;;;;;;;;;;;;;;;-144.99;98.09;52558.16;5051978;28;20006;-73
2023/01/23 06:56:48;;;;;;;;;;;;;;;-144.99;98.13;52521.47;5062002;28;19963;-75
2023/01/23 06:59:16;;;;;;;;;;;;;;;-144.99;97.66;52539.81;5061976;28;19939;-76
2023/01/23 07:01:43;;;;;;;;;;;;;;;-144.99;97.68;52513.31;5058438;28;20032;-77
2023/01/23 07:04:09;;;;;;;;;;;;;;;-144.99;97.76;52521.47;5048327;28;20007;-76
2023/01/23 07:06:36;;;;;;;;;;;;;;;-144.99;97.74;52521.47;5043553;28;19975;-76
2023/01/23 07:09:02;;;;;;;;;;;;;;;-144.99;97.64;52558.16;5063522;28;19928;-77
2023/01/23 07:11:29;;;;;;;;;;;;;;;-144.99;97.65;52513.31;5048181;28;19933;-73
2023/01/23 07:13:55;;;;;;;;;;;;;;;-144.99;97.49;52545.94;5053905;28;20109;-76
2023/01/23 07:16:24;;;;;;;;;;;;;;;-144.99;97.67;52533.69;5048351;28;19928;-77
2023/01/23 07:18:50;;;;;;;;;;;;;;;-144.99;97.42;52566.31;5053596;28;19932;-77
2023/01/23 07:21:17;;;;;;;;;;;;;;;-144.99;97.53;52574.47;5048662;28;19925;-75
2023/01/23 07:23:43;;;;;;;;;;;;;;;-144.99;97.69;52509.25;5049392;28;19960;-80
2023/01/23 07:26:11;;;;;;;;;;;;;;;-144.99;97.51;52529.63;5042677;28;20038;-77
2023/01/23 07:28:37;;;;;;;;;;;;;;;-144.99;97.64;52533.69;5052897;28;19964;-77
2023/01/23 07:31:04;;;;;;;;;;;;;;;-144.99;97.45;52501.09;5047566;28;19972;-76
2023/01/23 07:33:32;;;;;;;;;;;;;;;-144.99;97.62;52541.84;5053837;28;20398;-76
2023/01/23 07:35:59;;;;;;;;;;;;;;;-144.99;97.48;52545.94;5051718;28;19925;-77
2023/01/23 07:38:26;;;;;;;;;;;;;;;-144.99;96.92;52533.69;5059428;28;19924;-78
2023/01/23 07:40:52;;;;;;;;;;;;;;;-144.99;97.13;52484.78;5061948;28;19935;-76
2023/01/23 07:43:19;;;;;;;;;;;;;;;-144.99;97.22;52521.47;5056696;28;19947;-76
2023/01/23 07:45:45;;;;;;;;;;;;;;;-144.99;97.15;52509.25;5048911;28;19972;-76
2023/01/23 07:48:12;;;;;;;;;;;;;;;-144.99;96.79;52550.00;5045786;28;19928;-79
2023/01/23 07:50:40;;;;;;;;;;;;;;;-144.99;96.52;52541.84;5054964;28;19977;-82
2023/01/23 07:53:06;;;;;;;;;;;;;;;-144.99;96.33;52521.47;5064217;28;19913;-81
2023/01/23 07:55:33;;;;;;;;;;;;;;;-144.99;96.16;52533.69;5057950;28;19936;-78
2023/01/23 07:57:59;;;;;;;;;;;;;;;-144.99;96.19;52464.41;5058192;28;19935;-80
2023/01/23 08:00:26;;;;;;;;;;;;;;;-144.99;96.11;52507.19;5057653;28;19914;-84
2023/01/23 08:02:52;;;;;;;;;;;;;;;-144.99;96.88;52539.81;5057586;28;19931;-75
2023/01/23 08:05:19;;;;;;;;;;;;;;;-144.99;96.82;52541.84;5121663;22;19927;-72
2023/01/23 08:07:47;;;;;;;;;;;;;;;-144.99;95.69;52541.84;5108050;28;20006;-72
2023/01/23 08:10:13;;;;;;;;;;;;;;;-144.99;95.02;52554.09;4755479;28;9999752;-73
2023/01/23 08:12:40;;;;;;;;;;;;;;;-144.99;96.28;52547.97;5107887;28;19954;-73
2023/01/23 08:15:07;;;;;;;;;;;;;;;-144.99;96.96;52537.78;5105986;27;19966;-73
2023/01/23 08:17:33;;;;;;;;;;;;;;;-144.99;97.35;52570.38;5105358;28;19932;-74
2023/01/23 08:20:00;;;;;;;;;;;;;;;-144.99;97.72;52499.06;5105785;28;19967;-75
2023/01/23 08:22:26;;;;;;;;;;;;;;;-144.99;97.72;52545.94;5109672;28;19928;-74
2023/01/23 08:24:54;;;;;;;;;;;;;;;-144.99;97.67;52550.00;5111968;28;19979;-73
2023/01/23 08:27:20;;;;;;;;;;;;;;;-144.99;97.60;52560.19;5107194;28;20290;-73
2023/01/23 08:29:47;;;;;;;;;;;;;;;-144.99;97.38;52517.41;5103518;28;20345;-76
2023/01/23 08:32:13;;;;;;;;;;;;;;;-144.99;97.58;52513.31;5103682;28;19928;-74
2023/01/23 08:34:40;;;;;;;;;;;;;;;-144.99;97.66;52525.56;5102430;28;19924;-74
2023/01/23 08:37:06;;;;;;;;;;;;;;;-144.99;97.69;52484.78;5107226;28;19951;-74
2023/01/23 08:39:34;;;;;;;;;;;;;;;-144.99;97.57;52554.09;5100237;28;19932;-74
2023/01/23 08:42:02;;;;;;;;;;;;;;;-144.99;96.74;52541.84;5102141;28;19934;-72
2023/01/23 08:44:30;;;;;;;;;;;;;;;-144.99;96.73;52533.69;5098117;28;19924;-74
2023/01/23 08:46:56;;;;;;;;;;;;;;;-144.99;96.70;52533.69;5105934;28;19927;-73
2023/01/23 08:49:22;;;;;;;;;;;;;;;-144.99;96.56;52507.19;5103353;28;20052;-73
2023/01/23 08:51:49;;;;;;;;;;;;;;;-144.99;96.56;52556.13;5106830;28;19928;-74
2023/01/23 08:54:16;;;;;;;;;;;;;;;-144.99;97.37;52537.78;5106643;28;20513;-74
2023/01/23 08:56:42;;;;;;;;;;;;;;;-144.99;97.71;52566.31;5097871;28;20002;-74
2023/01/23 08:59:10;;;;;;;;;;;;;;;-144.99;97.64;52529.63;5105165;28;19975;-73
2023/01/23 09:01:37;;;;;;;;;;;;;;;-144.99;97.41;52533.69;5137791;28;19934;-74
2023/01/23 09:04:03;;;;;;;;;;;;;;;-144.99;96.86;52486.81;5128035;27;19977;-73
2023/01/23 09:06:30;;;;;;;;;;;;;;;-144.99;96.91;52523.50;5112103;27;20422;-74
2023/01/23 09:08:56;;;;;;;;;;;;;;;-144.99;96.71;52543.91;5111770;28;20005;-73
2023/01/23 09:11:23;;;;;;;;;;;;;;;-144.99;96.75;52527.59;5109195;28;20035;-73
2023/01/23 09:13:49;;;;;;;;;;;;;;;-144.99;96.89;52509.25;5110337;28;20397;-73
2023/01/23 09:16:17;;;;;;;;;;;;;;;-144.99;95.84;52541.84;5108285;28;20406;-73
2023/01/23 09:18:44;;;;;;;;;;;;;;;-144.99;96.89;52541.84;5110868;28;19989;-73
2023/01/23 09:21:11;;;;;;;;;;;;;;;-144.99;97.03;52543.91;5111270;28;19959;-73
2023/01/23 09:23:38;;;;;;;;;;;;;;;-144.99;96.17;52533.69;5107589;28;20363;-73
2023/01/23 09:26:05;;;;;;;;;;;;;;;-144.99;96.03;52554.09;5105448;28;20040;-73
2023/01/23 09:28:31;;;;;;;;;;;;;;;-144.99;96.68;52513.31;5109223;28;20047;-73
2023/01/23 09:31:02;;;;;;;;;;;;;;;-144.99;96.10;52525.56;5109854;28;19978;-74
2023/01/23 09:33:30;;;;;;;;;;;;;;;-144.99;95.75;52503.13;5106337;28;19981;-73
2023/01/23 09:35:56;;;;;;;;;;;;;;;-144.99;95.62;52505.16;5112399;27;19927;-73
2023/01/23 09:38:23;;;;;;;;;;;;;;;-144.99;95.65;52517.41;5121047;27;19970;-75
2023/01/23 09:40:50;;;;;;;;;;;;;;;-144.99;95.75;52541.84;5127230;28;20048;-75
2023/01/23 09:43:22;;;;;;;;;;;;;;;-144.99;95.32;52511.28;5107388;28;20011;-75
2023/01/23 09:45:53;;;;;;;;;;;;;;;-144.99;95.37;52505.16;5099611;28;19966;-74
2023/01/23 09:48:22;;;;;;;;;;;;;;;-144.99;95.52;52525.56;5107011;28;19931;-74
2023/01/23 09:50:55;;;;;;;;;;;;;;;-144.99;95.56;52472.56;5108551;28;19944;-74
2023/01/23 09:53:23;;;;;;;;;;;;;;;-144.99;94.02;52501.09;5106715;28;19994;-75
2023/01/23 09:55:53;;;;;;;;;;;;;;;-144.99;93.55;52517.41;5104424;28;20438;-72
2023/01/23 09:58:25;;;;;;;;;;;;;;;-144.99;92.86;52505.16;5101956;28;20011;-73
2023/01/23 10:00:51;;;;;;;;;;;;;;;-144.99;92.75;52472.56;5106335;28;19928;-74
2023/01/23 10:03:18;;;;;;;;;;;;;;;-144.99;91.70;52505.16;5115749;27;19931;-74
2023/01/23 10:06:00;;;;;;;;;;;;;;;-144.99;91.63;52537.78;5093509;28;19989;-74
2023/01/23 10:08:35;;;;;;;;;;;;;;;-144.99;91.02;52550.00;5108890;28;19927;-74
2023/01/23 10:11:03;;;;;;;;;;;;;;;-144.99;92.90;52513.31;5110110;28;20391;-73
2023/01/23 10:13:47;;;;;;;;;;;;;;;-144.99;93.74;52501.09;5107863;28;19976;-74
2023/01/23 10:16:27;;;;;;;;;;;;;;;-144.99;94.03;52507.19;5104719;28;19928;-74
2023/01/23 10:19:02;;;;;;;;;;;;;;;-144.99;93.97;52517.41;5104516;28;20018;-74
2023/01/23 10:21:31;;;;;;;;;;;;;;;-144.99;93.59;52509.25;5100833;28;19989;-74
2023/01/23 10:24:01;;;;;;;;;;;;;;;-144.99;93.71;52521.47;5108035;28;19928;-74
2023/01/23 10:26:30;;;;;;;;;;;;;;;-144.99;93.53;52509.25;5101694;28;19951;-74
2023/01/23 10:29:00;;;;;;;;;;;;;;;-144.99;93.12;52492.94;5105072;28;19932;-74
2023/01/23 10:31:32;;;;;;;;;;;;;;;-144.99;92.19;52533.69;5097750;28;20022;-74
2023/01/23 10:34:04;;;;;;;;;;;;;;;-144.99;92.23;52492.94;5100588;28;20030;-73
2023/01/23 10:36:32;;;;;;;;;;;;;;;-144.99;92.09;52521.47;5101935;28;20141;-73
2023/01/23 10:39:03;;;;;;;;;;;;;;;-144.99;92.19;52507.19;5105405;28;19970;-73
2023/01/23 10:41:29;;;;;;;;;;;;;;;-144.99;91.99;52501.09;5103781;27;20011;-73
2023/01/23 10:43:56;;;;;;;;;;;;;;;-144.99;91.86;52501.09;5100622;28;19993;-73
2023/01/23 10:46:27;;;;;;;;;;;;;;;-144.99;91.96;52505.16;5106404;28;20011;-73
2023/01/23 10:48:54;;;;;;;;;;;;;;;-144.99;90.66;52513.31;5105129;28;20758;-73
2023/01/23 10:51:38;;;;;;;;;;;;;;;-144.99;91.15;52470.50;5106891;28;20014;-74
2023/01/23 10:54:10;;;;;;;;;;;;;;;-144.99;91.60;52505.16;5098461;28;19970;-73
2023/01/23 10:56:39;;;;;;;;;;;;;;;-144.99;91.20;52497.00;5109407;28;19928;-73
2023/01/23 10:59:06;;;;;;;;;;;;;;;-144.99;91.02;52547.97;5109375;28;20018;-72
2023/01/23 11:01:33;;;;;;;;;;;;;;;-144.99;91.28;52513.31;5108692;28;20022;-73
2023/01/23 11:04:09;;;;;;;;;;;;;;;-144.99;91.35;52547.97;5105536;28;20317;-74
2023/01/23 11:06:35;;;;;;;;;;;;;;;-144.99;90.98;52497.00;5105072;28;20110;-72
2023/01/23 11:09:03;;;;;;;;;;;;;;;-144.99;89.98;52497.00;5109092;28;19951;-72
2023/01/23 11:11:32;;;;;;;;;;;;;;;-144.99;89.94;52509.25;5107235;28;19935;-74
2023/01/23 11:14:06;;;;;;;;;;;;;;;-144.99;90.16;52566.31;5105927;28;19946;-73
2023/01/23 11:16:32;;;;;;;;;;;;;;;-144.99;89.94;52482.75;5105091;28;20023;-73
2023/01/23 11:19:04;;;;;;;;;;;;;;;-144.99;89.78;52556.13;5107449;28;19967;-73
2023/01/23 11:21:33;;;;;;;;;;;;;;;-144.99;89.85;52505.16;5095058;28;20235;-73
2023/01/23 11:24:10;;;;;;;;;;;;;;;-144.99;89.67;52521.47;5108243;28;20426;-73
2023/01/23 11:26:38;;;;;;;;;;;;;;;-144.99;89.58;52525.56;5105983;28;19977;-74
2023/01/23 11:29:19;;;;;;;;;;;;;;;-144.99;89.51;52509.25;5105129;28;19934;-72
2023/01/23 11:31:46;;;;;;;;;;;;;;;-144.99;89.62;52494.97;5102169;28;20028;-74
2023/01/23 11:34:14;;;;;;;;;;;;;;;-144.99;89.51;52515.34;5102292;28;20023;-74
2023/01/23 11:36:45;;;;;;;;;;;;;;;-144.99;89.41;52547.97;5103788;28;20022;-73
2023/01/23 11:39:16;;;;;;;;;;;;;;;-144.99;88.87;52533.69;5100845;28;19928;-73
2023/01/23 11:41:45;;;;;;;;;;;;;;;-144.99;87.31;52517.41;5114664;27;19938;-74
2023/01/23 11:44:15;;;;;;;;;;;;;;;-144.99;86.74;52492.94;5107039;28;19986;-73
2023/01/23 11:46:49;;;;;;;;;;;;;;;-144.99;87.34;52501.09;5115660;28;19963;-75
2023/01/23 11:49:24;;;;;;;;;;;;;;;-144.99;88.15;52513.31;5115076;28;19932;-73
2023/01/23 11:51:57;;;;;;;;;;;;;;;-144.99;88.20;52488.84;5112558;28;19978;-73
2023/01/23 11:54:33;;;;;;;;;;;;;;;-144.99;88.32;52517.41;5113251;27;20001;-73
2023/01/23 11:57:05;;;;;;;;;;;;;;;-144.99;88.25;52492.94;5114443;28;19974;-73
2023/01/23 11:59:50;;;;;;;;;;;;;;;-144.99;88.25;52556.13;5106454;28;20153;-72
2023/01/23 12:02:29;;;;;;;;;;;;;;;-144.99;88.20;52501.09;5110736;28;19927;-73
2023/01/23 12:05:01;;;;;;;;;;;;;;;-144.99;87.86;52494.97;5100151;28;19998;-71
2023/01/23 12:07:28;;;;;;;;;;;;;;;-144.99;87.75;52531.66;5107465;28;20035;-72
2023/01/23 12:10:02;;;;;;;;;;;;;;;-144.99;87.83;52513.31;5111184;28;19954;-73
2023/01/23 12:12:47;;;;;;;;;;;;;;;-144.99;87.63;52499.06;5109564;28;19967;-73
2023/01/23 12:15:21;;;;;;;;;;;;;;;-144.99;87.42;52484.78;5102631;28;20398;-73
2023/01/23 12:17:54;;;;;;;;;;;;;;;-144.99;87.04;52537.78;5109170;28;19968;-73
2023/01/23 12:20:28;;;;;;;;;;;;;;;-144.99;86.92;52505.16;5108585;28;19963;-73
2023/01/23 12:23:02;;;;;;;;;;;;;;;-144.99;86.81;52509.25;5115330;28;20016;-74
2023/01/23 12:25:31;;;;;;;;;;;;;;;-144.99;86.49;52529.63;5112997;28;19974;-75
2023/01/23 12:28:04;;;;;;;;;;;;;;;-144.99;86.86;52533.69;5107973;28;19999;-73
2023/01/23 12:30:54;;;;;;;;;;;;;;;-144.99;86.28;52517.41;5106671;28;20008;-74
2023/01/23 12:33:26;;;;;;;;;;;;;;;-144.99;86.38;52513.31;5103677;28;19951;-73
2023/01/23 12:35:59;;;;;;;;;;;;;;;-144.99;86.24;52533.69;5102360;28;19966;-73
2023/01/23 12:38:30;;;;;;;;;;;;;;;-144.99;86.37;52521.47;5110742;28;19936;-74